createdAt,value
2022-11-28T00:01:54.332Z,91.45
2022-11-28T00:04:22.756Z,91.50
2022-11-28T00:06:52.626Z,91.62
2022-11-28T00:09:21.754Z,91.50
2022-11-28T00:11:51.866Z,91.56
2022-11-28T00:14:20.878Z,91.83
2022-11-28T00:16:49.592Z,91.49
2022-11-28T00:19:17.940Z,91.16
2022-11-28T00:21:46.284Z,91.04
2022-11-28T00:24:14.561Z,90.89
2022-11-28T00:26:43.634Z,90.88
2022-11-28T00:29:13.279Z,91.53
2022-11-28T00:31:44.019Z,90.92
2022-11-28T00:34:13.868Z,91.12
2022-11-28T00:36:42.287Z,90.80
2022-11-28T00:39:10.614Z,90.78
2022-11-28T00:41:38.908Z,90.94
2022-11-28T00:44:07.428Z,90.73
2022-11-28T00:46:37.135Z,90.64
2022-11-28T00:49:05.410Z,90.93
2022-11-28T00:51:34.716Z,90.98
2022-11-28T00:54:04.889Z,90.93
2022-11-28T00:56:34.875Z,91.26
2022-11-28T00:59:03.535Z,91.43
2022-11-28T01:01:33.784Z,91.45
2022-11-28T01:04:06.016Z,91.60
2022-11-28T01:06:36.039Z,91.80
2022-11-28T01:09:06.434Z,91.95
2022-11-28T01:11:34.838Z,91.66
2022-11-28T01:14:03.567Z,91.87
2022-11-28T01:16:32.033Z,91.52
2022-11-28T01:19:00.556Z,91.44
2022-11-28T01:21:30.337Z,91.72
2022-11-28T01:23:58.825Z,91.88
2022-11-28T01:26:28.992Z,91.75
2022-11-28T01:28:57.423Z,92.04
2022-11-28T01:31:27.118Z,91.85
2022-11-28T01:33:55.777Z,91.84
2022-11-28T01:36:24.462Z,91.41
2022-11-28T01:38:54.324Z,91.33
2022-11-28T01:41:25.299Z,91.29
2022-11-28T01:44:02.242Z,91.39
2022-11-28T01:46:31.282Z,91.00
2022-11-28T01:49:02.485Z,90.88
2022-11-28T01:51:31.563Z,90.54
2022-11-28T01:54:01.447Z,90.74
2022-11-28T01:56:33.521Z,90.64
2022-11-28T01:59:04.850Z,90.46
2022-11-28T02:01:33.186Z,90.62
2022-11-28T02:04:01.756Z,90.60
2022-11-28T02:06:30.173Z,91.21
2022-11-28T02:08:58.491Z,91.28
2022-11-28T02:11:41.154Z,91.80
2022-11-28T02:14:15.462Z,92.47
2022-11-28T02:16:54.476Z,92.61
2022-11-28T02:19:58.409Z,92.58
2022-11-28T02:22:30.285Z,92.64
2022-11-28T02:25:08.940Z,92.59
2022-11-28T02:27:53.400Z,93.07
2022-11-28T02:30:22.849Z,92.74
2022-11-28T02:33:08.184Z,92.55
2022-11-28T02:35:40.808Z,92.72
2022-11-28T02:38:15.880Z,92.15
2022-11-28T02:40:51.280Z,92.13
2022-11-28T02:43:25.098Z,92.10
2022-11-28T02:45:58.743Z,91.81
2022-11-28T02:48:35.397Z,91.23
2022-11-28T02:51:08.270Z,90.71
2022-11-28T02:53:37.087Z,90.74
2022-11-28T02:56:06.182Z,90.28
2022-11-28T02:58:34.573Z,90.57
2022-11-28T03:01:03.044Z,90.55
2022-11-28T03:03:53.661Z,90.21
2022-11-28T03:06:31.843Z,90.04
2022-11-28T03:09:15.016Z,89.85
2022-11-28T03:11:51.191Z,89.79
2022-11-28T03:14:27.584Z,89.52
2022-11-28T03:17:02.943Z,88.74
2022-11-28T03:19:34.323Z,88.65
2022-11-28T03:22:10.541Z,87.91
2022-11-28T03:24:43.516Z,88.00
2022-11-28T03:27:16.216Z,88.21
2022-11-28T03:29:47.402Z,88.27
2022-11-28T03:32:19.868Z,88.38
2022-11-28T03:34:52.348Z,88.30
2022-11-28T03:37:24.592Z,88.54
2022-11-28T03:39:56.689Z,88.62
2022-11-28T03:42:28.399Z,88.06
2022-11-28T03:45:00.213Z,88.47
2022-11-28T03:47:34.274Z,88.78
2022-11-28T03:50:07.623Z,88.58
2022-11-28T03:52:40.743Z,88.71
2022-11-28T03:55:14.267Z,88.32
2022-11-28T03:57:46.843Z,88.50
2022-11-28T04:00:16.191Z,88.65
2022-11-28T04:02:50.272Z,89.02
2022-11-28T04:05:25.379Z,88.64
2022-11-28T04:07:57.680Z,88.04
2022-11-28T04:10:31.463Z,88.19
2022-11-28T04:13:02.973Z,88.68
2022-11-28T04:15:37.878Z,88.86
2022-11-28T04:18:15.054Z,88.70
2022-11-28T04:20:47.313Z,88.90
2022-11-28T04:23:18.774Z,89.09
2022-11-28T04:25:52.894Z,89.16
2022-11-28T04:28:24.637Z,89.32
2022-11-28T04:30:54.022Z,89.27
2022-11-28T04:33:24.466Z,89.24
2022-11-28T04:35:55.303Z,89.28
2022-11-28T04:38:25.123Z,89.51
2022-11-28T04:40:55.749Z,89.58
2022-11-28T04:43:28.244Z,89.75
2022-11-28T04:45:59.088Z,89.96
2022-11-28T04:48:33.992Z,90.01
2022-11-28T04:51:10.280Z,89.73
2022-11-28T04:53:43.239Z,89.80
2022-11-28T04:56:15.155Z,89.49
2022-11-28T04:58:45.185Z,89.38
2022-11-28T05:01:17.616Z,89.34
2022-11-28T05:03:46.067Z,88.84
2022-11-28T05:06:26.008Z,89.14
2022-11-28T05:08:54.471Z,88.83
2022-11-28T05:11:22.810Z,88.76
2022-11-28T05:13:51.156Z,88.53
2022-11-28T05:16:19.904Z,88.48
2022-11-28T05:18:48.214Z,88.31
2022-11-28T05:21:16.712Z,88.40
2022-11-28T05:23:46.935Z,88.62
2022-11-28T05:26:16.846Z,88.21
2022-11-28T05:28:46.041Z,88.45
2022-11-28T05:31:15.294Z,88.33
2022-11-28T05:33:43.723Z,88.40
2022-11-28T05:36:13.793Z,88.03
2022-11-28T05:38:42.524Z,88.18
2022-11-28T05:41:20.137Z,88.22
2022-11-28T05:43:48.419Z,88.15
2022-11-28T05:46:16.845Z,88.39
2022-11-28T05:48:45.438Z,87.60
2022-11-28T05:51:15.515Z,88.08
2022-11-28T05:53:43.865Z,87.93
2022-11-28T05:56:15.108Z,87.80
2022-11-28T05:58:43.874Z,87.54
2022-11-28T06:01:13.662Z,87.47
2022-11-28T06:03:44.930Z,87.60
2022-11-28T06:06:15.185Z,87.16
2022-11-28T06:08:45.447Z,87.35
2022-11-28T06:11:15.777Z,87.22
2022-11-28T06:13:44.700Z,87.27
2022-11-28T06:16:15.254Z,87.17
2022-11-28T06:18:43.987Z,86.79
2022-11-28T06:21:13.756Z,87.00
2022-11-28T06:23:42.398Z,86.88
2022-11-28T06:26:12.451Z,87.11
2022-11-28T06:28:42.630Z,87.31
2022-11-28T06:31:12.465Z,87.34
2022-11-28T06:33:40.865Z,87.25
2022-11-28T06:36:10.691Z,87.02
2022-11-28T06:38:39.348Z,86.61
2022-11-28T06:41:08.983Z,86.31
2022-11-28T06:43:37.520Z,84.64
2022-11-28T06:46:09.938Z,84.04
2022-11-28T06:48:41.413Z,83.37
2022-11-28T06:51:09.797Z,83.07
2022-11-28T06:53:38.361Z,82.91
2022-11-28T06:56:07.756Z,82.38
2022-11-28T06:58:37.050Z,82.14
2022-11-28T07:01:11.535Z,81.56
2022-11-28T07:03:40.654Z,81.46
2022-11-28T07:06:09.936Z,81.12
2022-11-28T07:08:38.577Z,81.68
2022-11-28T07:11:11.898Z,81.13
2022-11-28T07:13:40.961Z,81.18
2022-11-28T07:16:15.739Z,81.46
2022-11-28T07:18:43.857Z,80.84
2022-11-28T07:21:12.478Z,81.19
2022-11-28T07:23:40.796Z,81.04
2022-11-28T07:26:09.252Z,80.89
2022-11-28T07:28:37.630Z,80.84
2022-11-28T07:31:07.715Z,81.23
2022-11-28T07:33:37.697Z,81.18
2022-11-28T07:36:07.571Z,81.93
2022-11-28T07:38:35.952Z,83.13
2022-11-28T07:41:05.415Z,84.14
2022-11-28T07:43:34.060Z,84.46
2022-11-28T07:46:05.161Z,84.76
2022-11-28T07:48:33.740Z,85.23
2022-11-28T07:51:06.337Z,85.08
2022-11-28T07:53:34.796Z,85.94
2022-11-28T07:56:04.809Z,86.14
2022-11-28T07:58:33.177Z,85.55
2022-11-28T08:01:01.517Z,85.16
2022-11-28T08:03:29.812Z,85.05
2022-11-28T08:06:03.704Z,84.25
2022-11-28T08:08:33.639Z,84.04
2022-11-28T08:11:03.586Z,83.78
2022-11-28T08:13:31.949Z,83.09
2022-11-28T08:16:01.443Z,82.92
2022-11-28T08:18:29.801Z,82.92
2022-11-28T08:21:04.718Z,83.50
2022-11-28T08:23:36.018Z,84.39
2022-11-28T08:26:04.445Z,84.63
2022-11-28T08:28:33.028Z,84.54
2022-11-28T08:31:04.634Z,84.56
2022-11-28T08:33:33.133Z,84.29
2022-11-28T08:36:01.516Z,84.12
2022-11-28T08:38:30.015Z,84.11
2022-11-28T08:41:03.709Z,84.13
2022-11-28T08:43:32.271Z,84.18
2022-11-28T08:46:01.218Z,84.08
2022-11-28T08:48:30.502Z,84.06
2022-11-28T08:50:58.904Z,83.27
2022-11-28T08:53:28.388Z,83.60
2022-11-28T08:55:56.808Z,83.36
2022-11-28T08:58:26.717Z,83.01
2022-11-28T09:00:56.709Z,83.57
2022-11-28T09:03:25.478Z,83.42
2022-11-28T09:05:53.846Z,83.57
2022-11-28T09:08:22.725Z,83.05
2022-11-28T09:10:50.965Z,82.98
2022-11-28T09:13:19.606Z,82.65
2022-11-28T09:15:52.715Z,81.95
2022-11-28T09:18:22.148Z,82.83
2022-11-28T09:20:50.554Z,82.87
2022-11-28T09:23:18.950Z,82.85
2022-11-28T09:25:47.387Z,82.14
2022-11-28T09:28:15.711Z,82.21
2022-11-28T09:30:44.205Z,82.69
2022-11-28T09:33:14.101Z,82.78
2022-11-28T09:35:42.619Z,81.98
2022-11-28T09:38:10.964Z,81.52
2022-11-28T09:40:40.834Z,81.59
2022-11-28T09:43:15.256Z,81.23
2022-11-28T09:45:45.312Z,81.28
2022-11-28T09:48:27.258Z,80.58
2022-11-28T09:50:59.054Z,80.46
2022-11-28T09:53:31.876Z,80.26
2022-11-28T09:56:01.751Z,79.91
2022-11-28T09:58:37.864Z,79.55
2022-11-28T10:01:15.377Z,79.17
2022-11-28T10:03:51.029Z,79.65
2022-11-28T10:06:23.668Z,80.39
2022-11-28T10:09:09.288Z,79.97
2022-11-28T10:11:48.091Z,79.74
2022-11-28T10:14:56.812Z,79.03
2022-11-28T10:17:36.841Z,79.10
2022-11-28T10:20:11.230Z,78.51
2022-11-28T10:22:44.561Z,78.50
2022-11-28T10:25:17.257Z,78.14
2022-11-28T10:27:46.135Z,77.92
2022-11-28T10:30:20.691Z,78.18
2022-11-28T10:32:55.009Z,78.58
2022-11-28T10:35:29.873Z,78.93
2022-11-28T10:37:58.237Z,78.41
2022-11-28T10:40:30.649Z,78.27
2022-11-28T10:43:02.754Z,77.99
2022-11-28T10:45:36.469Z,78.53
2022-11-28T10:48:38.975Z,79.18
2022-11-28T10:51:16.685Z,79.06
2022-11-28T10:53:51.474Z,100.00
2022-11-28T10:56:22.520Z,100.00
2022-11-28T10:58:56.585Z,100.00
2022-11-28T11:01:25.070Z,100.00
2022-11-28T11:03:53.454Z,100.00
2022-11-28T11:06:36.114Z,100.00
2022-11-28T11:09:10.888Z,100.00
2022-11-28T11:11:54.465Z,100.00
2022-11-28T11:14:34.997Z,100.00
2022-11-28T11:17:04.045Z,100.00
2022-11-28T11:19:34.589Z,100.00
2022-11-28T11:22:07.565Z,100.00
2022-11-28T11:24:36.350Z,100.00
2022-11-28T11:27:07.427Z,100.00
2022-11-28T11:29:37.416Z,100.00
2022-11-28T11:32:07.219Z,100.00
2022-11-28T11:34:38.930Z,100.00
2022-11-28T11:37:25.456Z,100.00
2022-11-28T11:39:54.498Z,100.00
2022-11-28T11:42:24.267Z,100.00
2022-11-28T11:44:52.868Z,100.00
2022-11-28T11:47:21.346Z,100.00
2022-11-28T11:49:53.235Z,100.00
2022-11-28T11:52:25.873Z,100.00
2022-11-28T11:54:59.689Z,100.00
2022-11-28T11:57:34.979Z,100.00
2022-11-28T12:00:07.154Z,100.00
2022-11-28T12:02:43.313Z,100.00
2022-11-28T12:05:14.304Z,100.00
2022-11-28T12:07:53.711Z,100.00
2022-11-28T12:10:26.075Z,100.00
2022-11-28T12:12:54.607Z,100.00
2022-11-28T12:15:29.163Z,100.00
2022-11-28T12:18:07.101Z,100.00
2022-11-28T12:20:46.031Z,100.00
2022-11-28T12:23:34.425Z,100.00
2022-11-28T12:26:08.110Z,100.00
2022-11-28T12:28:47.429Z,100.00
2022-11-28T12:31:22.585Z,100.00
2022-11-28T12:33:58.561Z,100.00
2022-11-28T12:36:30.702Z,100.00
2022-11-28T12:39:17.785Z,100.00
2022-11-28T12:42:33.561Z,100.00
2022-11-28T12:45:26.610Z,100.00
2022-11-28T12:48:04.024Z,100.00
2022-11-28T12:50:35.161Z,100.00
2022-11-28T12:53:14.540Z,100.00
2022-11-28T12:55:47.599Z,100.00
2022-11-28T12:58:20.356Z,100.00
2022-11-28T13:00:52.670Z,100.00
2022-11-28T13:03:35.485Z,100.00
2022-11-28T13:06:13.411Z,100.00
2022-11-28T13:09:02.412Z,100.00
2022-11-28T13:11:42.580Z,100.00
2022-11-28T13:14:19.080Z,100.00
2022-11-28T13:16:49.814Z,100.00
2022-11-28T13:19:31.701Z,100.00
2022-11-28T13:22:07.128Z,100.00
2022-11-28T13:24:42.694Z,100.00
2022-11-28T13:27:22.218Z,100.00
2022-11-28T13:29:55.883Z,100.00
2022-11-28T13:32:29.892Z,100.00
2022-11-28T13:34:58.413Z,100.00
2022-11-28T13:40:27.989Z,100.00
2022-11-28T13:43:08.470Z,100.00
2022-11-28T13:45:39.364Z,100.00
2022-11-28T13:51:34.717Z,100.00
2022-11-28T13:54:48.993Z,100.00
2022-11-28T13:57:29.904Z,100.00
2022-11-28T14:00:04.128Z,100.00
2022-11-28T14:02:45.231Z,100.00
2022-11-28T14:05:26.703Z,100.00
2022-11-28T14:07:56.296Z,100.00
2022-11-28T14:10:41.979Z,100.00
2022-11-28T14:13:34.732Z,100.00
2022-11-28T14:16:14.192Z,100.00
2022-11-28T14:18:58.521Z,100.00
2022-11-28T14:21:34.156Z,100.00
2022-11-28T14:24:07.781Z,100.00
2022-11-28T14:26:38.257Z,100.00
2022-11-28T14:29:21.129Z,100.00
2022-11-28T14:32:21.689Z,100.00
2022-11-28T14:34:43.529Z,100.00
2022-11-28T14:37:53.087Z,100.00
2022-11-28T14:41:06.780Z,100.00
2022-11-28T14:43:37.716Z,100.00
2022-11-28T14:46:25.031Z,100.00
2022-11-28T14:49:22.113Z,100.00
2022-11-28T14:52:41.615Z,100.00
2022-11-28T14:55:22.976Z,100.00
2022-11-28T14:57:58.807Z,100.00
2022-11-28T15:00:29.724Z,100.00
2022-11-28T15:03:22.171Z,100.00
2022-11-28T15:05:52.460Z,100.00
2022-11-28T15:08:55.971Z,100.00
2022-11-28T15:11:43.624Z,100.00
2022-11-28T15:14:21.415Z,100.00
2022-11-28T15:16:53.237Z,100.00
2022-11-28T15:19:28.574Z,100.00
2022-11-28T15:21:59.006Z,100.00
2022-11-28T15:24:30.663Z,100.00
2022-11-28T15:27:00.964Z,100.00
2022-11-28T15:29:30.414Z,100.00
2022-11-28T15:32:01.344Z,100.00
2022-11-28T15:34:31.483Z,100.00
2022-11-28T15:37:06.347Z,100.00
2022-11-28T15:39:36.255Z,100.00
2022-11-28T15:42:09.297Z,100.00
2022-11-28T15:44:43.445Z,100.00
2022-11-28T15:47:22.234Z,100.00
2022-11-28T15:50:04.903Z,100.00
2022-11-28T15:52:39.212Z,100.00
2022-11-28T15:55:22.528Z,100.00
2022-11-28T15:58:12.610Z,100.00
2022-11-28T16:00:52.034Z,100.00
2022-11-28T16:03:32.395Z,100.00
2022-11-28T16:06:04.503Z,100.00
2022-11-28T16:08:50.133Z,100.00
2022-11-28T16:11:33.504Z,100.00
2022-11-28T16:14:15.454Z,100.00
2022-11-28T16:16:58.287Z,100.00
2022-11-28T16:19:39.997Z,100.00
2022-11-28T16:22:19.584Z,100.00
2022-11-28T16:24:57.156Z,100.00
2022-11-28T16:27:41.661Z,100.00
2022-11-28T16:30:32.755Z,100.00
2022-11-28T16:33:22.064Z,100.00
2022-11-28T16:35:56.402Z,100.00
2022-11-28T16:38:34.657Z,100.00
2022-11-28T16:41:15.669Z,100.00
2022-11-28T16:43:56.758Z,100.00
2022-11-28T16:46:44.898Z,100.00
2022-11-28T16:49:45.644Z,100.00
2022-11-28T16:52:53.743Z,100.00
2022-11-28T16:55:47.903Z,100.00
2022-11-28T16:58:27.752Z,100.00
2022-11-28T17:01:12.785Z,100.00
2022-11-28T17:04:09.883Z,100.00
2022-11-28T17:07:14.100Z,100.00
2022-11-28T17:09:58.884Z,100.00
2022-11-28T17:12:37.205Z,100.00
2022-11-28T17:15:19.164Z,100.00
2022-11-28T17:17:55.843Z,100.00
2022-11-28T17:20:24.287Z,100.00
2022-11-28T17:22:56.464Z,100.00
2022-11-28T17:25:24.874Z,100.00
2022-11-28T17:27:53.887Z,100.00
2022-11-28T17:30:23.929Z,100.00
2022-11-28T17:32:54.905Z,100.00
2022-11-28T17:35:25.232Z,100.00
2022-11-28T17:37:53.658Z,100.00
2022-11-28T17:40:34.369Z,100.00
2022-11-28T17:43:03.199Z,100.00
2022-11-28T17:45:36.304Z,100.00
2022-11-28T17:48:04.901Z,100.00
2022-11-28T17:50:34.532Z,100.00
2022-11-28T17:53:03.045Z,100.00
2022-11-28T17:55:31.608Z,100.00
2022-11-28T17:58:00.195Z,100.00
2022-11-28T18:00:34.282Z,100.00
2022-11-28T18:03:02.899Z,100.00
2022-11-28T18:05:51.478Z,100.00
2022-11-28T18:08:22.625Z,100.00
2022-11-28T18:10:52.353Z,100.00
2022-11-28T18:13:21.089Z,100.00
2022-11-28T18:15:54.838Z,100.00
2022-11-28T18:18:24.519Z,100.00
2022-11-28T18:20:52.928Z,100.00
2022-11-28T18:23:21.596Z,100.00
2022-11-28T18:25:51.569Z,100.00
2022-11-28T18:28:22.324Z,100.00
2022-11-28T18:30:53.276Z,100.00
2022-11-28T18:33:22.191Z,100.00
2022-11-28T18:35:50.899Z,100.00
2022-11-28T18:38:19.315Z,100.00
2022-11-28T18:40:50.807Z,100.00
2022-11-28T18:43:19.232Z,100.00
2022-11-28T18:45:48.407Z,100.00
2022-11-28T18:48:19.082Z,100.00
2022-11-28T18:50:48.256Z,100.00
2022-11-28T18:53:16.765Z,100.00
2022-11-28T18:55:45.280Z,100.00
2022-11-28T18:58:13.978Z,100.00
2022-11-28T19:00:42.762Z,100.00
2022-11-28T19:03:11.388Z,100.00
2022-11-28T19:05:44.235Z,100.00
2022-11-28T19:08:12.614Z,100.00
2022-11-28T19:10:41.255Z,100.00
2022-11-28T19:13:09.578Z,100.00
2022-11-28T19:15:40.828Z,100.00
2022-11-28T19:18:10.224Z,100.00
2022-11-28T19:20:44.303Z,100.00
2022-11-28T19:23:12.982Z,100.00
2022-11-28T19:25:42.566Z,100.00
2022-11-28T19:28:11.330Z,100.00
2022-11-28T19:30:42.252Z,100.00
2022-11-28T19:33:22.247Z,100.00
2022-11-28T19:35:56.812Z,100.00
2022-11-28T19:38:25.219Z,100.00
2022-11-28T19:41:42.435Z,100.00
2022-11-28T19:44:12.012Z,100.00
2022-11-28T19:46:43.697Z,100.00
2022-11-28T19:49:18.106Z,100.00
2022-11-28T19:51:48.559Z,100.00
2022-11-28T19:54:37.219Z,82.66
2022-11-28T19:57:11.076Z,82.90
2022-11-28T19:59:39.502Z,83.00
2022-11-28T20:02:08.081Z,82.61
2022-11-28T20:04:36.475Z,82.26
2022-11-28T20:07:05.067Z,82.01
2022-11-28T20:09:33.715Z,82.02
2022-11-28T20:12:03.667Z,81.86
2022-11-28T20:14:32.504Z,81.95
2022-11-28T20:17:01.350Z,81.80
2022-11-28T20:19:29.815Z,81.54
2022-11-28T20:21:59.000Z,81.45
2022-11-28T20:24:27.684Z,81.30
2022-11-28T20:26:57.066Z,81.15
2022-11-28T20:29:28.068Z,81.40
2022-11-28T20:31:57.436Z,81.37
2022-11-28T20:34:27.043Z,81.48
2022-11-28T20:36:55.584Z,81.32
2022-11-28T20:39:25.305Z,81.18
2022-11-28T20:41:55.005Z,81.19
2022-11-28T20:44:23.534Z,81.24
2022-11-28T20:46:53.456Z,81.12
2022-11-28T20:49:21.922Z,81.70
2022-11-28T20:51:51.056Z,81.96
2022-11-28T20:54:19.971Z,81.69
2022-11-28T20:59:36.832Z,81.46
2022-11-28T21:02:06.635Z,81.10
2022-11-28T21:04:35.045Z,81.35
2022-11-28T21:07:03.419Z,81.28
2022-11-28T21:09:32.293Z,80.76
2022-11-28T21:12:00.623Z,81.37
2022-11-28T21:14:29.633Z,81.49
2022-11-28T21:16:58.955Z,81.91
2022-11-28T21:19:28.724Z,82.16
2022-11-28T21:21:57.129Z,82.36
2022-11-28T21:24:25.485Z,82.40
2022-11-28T21:26:54.830Z,81.88
2022-11-28T21:29:24.727Z,81.74
2022-11-28T21:31:53.846Z,81.29
2022-11-28T21:34:22.843Z,81.18
2022-11-28T21:36:52.653Z,80.85
2022-11-28T21:39:23.038Z,80.83
2022-11-28T21:41:52.175Z,80.72
2022-11-28T21:44:20.766Z,81.19
2022-11-28T21:46:50.411Z,81.34
2022-11-28T21:49:19.159Z,81.60
2022-11-28T21:51:47.550Z,81.90
2022-11-28T21:54:17.250Z,82.01
2022-11-28T21:56:46.852Z,82.20
2022-11-28T21:59:15.188Z,82.06
2022-11-28T22:01:44.469Z,81.58
2022-11-28T22:04:13.020Z,81.41
2022-11-28T22:06:41.624Z,81.14
2022-11-28T22:09:10.547Z,81.36
2022-11-28T22:11:41.781Z,81.37
2022-11-28T22:14:10.635Z,81.51
2022-11-28T22:16:39.528Z,81.17
2022-11-28T22:19:07.880Z,81.34
2022-11-28T22:21:55.493Z,81.33
2022-11-28T22:24:24.893Z,81.04
2022-11-28T22:26:56.097Z,81.17
2022-11-28T22:29:25.262Z,81.67
2022-11-28T22:31:55.185Z,82.18
2022-11-28T22:34:24.697Z,82.15
2022-11-28T22:36:53.150Z,82.53
2022-11-28T22:39:22.562Z,83.00
2022-11-28T22:41:50.917Z,83.25
2022-11-28T22:44:23.279Z,83.54
2022-11-28T22:46:51.731Z,83.60
2022-11-28T22:49:20.285Z,83.67
2022-11-28T22:51:49.107Z,83.62
2022-11-28T22:54:17.741Z,83.58
2022-11-28T22:56:46.048Z,83.82
2022-11-28T22:59:16.120Z,83.57
2022-11-28T23:01:46.357Z,83.93
2022-11-28T23:04:16.318Z,83.79
2022-11-28T23:06:45.197Z,83.50
2022-11-28T23:09:15.165Z,83.79
2022-11-28T23:11:45.571Z,83.69
2022-11-28T23:14:16.897Z,83.95
2022-11-28T23:16:47.057Z,83.83
2022-11-28T23:19:16.857Z,83.67
2022-11-28T23:21:46.688Z,83.36
2022-11-28T23:24:17.625Z,83.20
2022-11-28T23:26:48.804Z,83.21
2022-11-28T23:29:17.837Z,82.96
2022-11-28T23:31:48.230Z,82.79
2022-11-28T23:34:17.227Z,82.98
2022-11-28T23:36:46.849Z,83.10
2022-11-28T23:39:19.066Z,83.18
2022-11-28T23:41:47.490Z,83.32
2022-11-28T23:44:16.687Z,83.78
2022-11-28T23:46:45.159Z,84.15
2022-11-28T23:49:15.135Z,84.04
2022-11-28T23:51:43.869Z,84.51
2022-11-28T23:54:13.079Z,84.60
2022-11-28T23:56:42.864Z,84.93
2022-11-28T23:59:12.834Z,84.93
